Ana Sayfa
METAR-TAF:

METAR-TAF

Havaalanları :

Weno, Mikronezya

Enlem: 07-28N, Boylam: 151-51E, yükseklik: 3 m

Güncel hava durumu gözlemi

Rapor saat 01:50 UTC de 44 dakika önce yapıldı.
Rüzgar kuzeydoğudan 9 kt
Sıcaklık 31°C
Nem 89%
Basınç 1009 hPa
Görüş mesafesi: 24.1 km
1400 ft yükseklikte az bulutlu
28000 ft yükseklikte parçalı çok bulutlu

METAR: PTKK 270150Z 04009KT 15SM FEW014 BKN280 31/29 A2980 RMK SLP093 T03060290

Saat: 12:34 (02:34 UTC)

Tahmin

Rapor saat 23:33 UTC de 3 saat ve 1 dakika önce yapıldı.
Ayın 27'si saat 00 UTC'den ayın 27'si saat 24 UTC'ye kadar geçerli Tahmin
Rüzgar doğu/kuzeydoğudan 8 kt
Görüş mesafesi: 10 km
1500 ft yükseklikte parçalı bulutlu
3000 ft yükseklikte parçalı bulutlu
Civarda sağanaklar

TAF: PTKK 262333Z 2700/2724 06008KT P6SM VCSH SCT015 SCT030

4.000'den fazla havaalanı için hava durumu gözlemleri ve tahminleri (METAR ve TAF raporları).

Kullanılabilir istasyonlar harita üzerinde sarı ve kırmızı noktalarla gösterilir.

İstasyonun adını görmek için fareyi noktanın üzerinde gezdirin.

Sonrasında hava gözlem ve tahminlerini görmek için tıklayın.

Haritayı değiştirmek için: yaklaştırmak için siyah artı işaretli yeşil düğmeye ve uzaklaştırmak için de eksi işaretli düğmeye hızla tıklayın; bitişik haritalar için yeşil okları kullanın.


METAR-TAF: